sensor_id;sensor_type;location;lat;lon;timestamp;P1;durP1;ratioP1;P2;durP2;ratioP2
32228;SDS011;18717;48.034;11.186;2023-02-01T00:00:34;8.85;;;7.95;;
32228;SDS011;18717;48.034;11.186;2023-02-01T00:03:03;9.40;;;8.60;;
32228;SDS011;18717;48.034;11.186;2023-02-01T00:05:31;10.55;;;8.57;;
32228;SDS011;18717;48.034;11.186;2023-02-01T00:07:59;8.95;;;8.15;;
32228;SDS011;18717;48.034;11.186;2023-02-01T00:10:27;12.82;;;8.73;;
32228;SDS011;18717;48.034;11.186;2023-02-01T00:12:54;9.63;;;8.73;;
32228;SDS011;18717;48.034;11.186;2023-02-01T00:15:22;9.07;;;8.20;;
32228;SDS011;18717;48.034;11.186;2023-02-01T00:17:52;8.57;;;7.82;;
32228;SDS011;18717;48.034;11.186;2023-02-01T00:20:21;9.77;;;8.93;;
32228;SDS011;18717;48.034;11.186;2023-02-01T00:22:49;10.23;;;8.10;;
32228;SDS011;18717;48.034;11.186;2023-02-01T00:25:17;9.65;;;8.55;;
32228;SDS011;18717;48.034;11.186;2023-02-01T00:27:48;9.45;;;8.07;;
32228;SDS011;18717;48.034;11.186;2023-02-01T00:30:16;10.93;;;8.65;;
32228;SDS011;18717;48.034;11.186;2023-02-01T00:32:45;9.93;;;8.20;;
32228;SDS011;18717;48.034;11.186;2023-02-01T00:35:13;10.35;;;9.30;;
32228;SDS011;18717;48.034;11.186;2023-02-01T00:37:41;10.32;;;9.27;;
32228;SDS011;18717;48.034;11.186;2023-02-01T00:40:10;9.15;;;8.02;;
32228;SDS011;18717;48.034;11.186;2023-02-01T00:42:38;9.68;;;8.25;;
32228;SDS011;18717;48.034;11.186;2023-02-01T00:45:06;8.80;;;7.93;;
32228;SDS011;18717;48.034;11.186;2023-02-01T00:47:34;11.48;;;8.40;;
32228;SDS011;18717;48.034;11.186;2023-02-01T00:50:02;9.27;;;8.40;;
32228;SDS011;18717;48.034;11.186;2023-02-01T00:52:30;9.90;;;9.00;;
32228;SDS011;18717;48.034;11.186;2023-02-01T00:54:59;12.82;;;8.85;;
32228;SDS011;18717;48.034;11.186;2023-02-01T00:57:27;12.52;;;9.40;;
32228;SDS011;18717;48.034;11.186;2023-02-01T00:59:54;9.93;;;8.88;;
32228;SDS011;18717;48.034;11.186;2023-02-01T01:02:22;10.15;;;7.88;;
32228;SDS011;18717;48.034;11.186;2023-02-01T01:04:50;10.60;;;9.27;;
32228;SDS011;18717;48.034;11.186;2023-02-01T01:07:18;13.30;;;9.45;;
32228;SDS011;18717;48.034;11.186;2023-02-01T01:09:46;10.80;;;9.63;;
32228;SDS011;18717;48.034;11.186;2023-02-01T01:12:15;12.63;;;10.10;;
32228;SDS011;18717;48.034;11.186;2023-02-01T01:14:42;13.52;;;9.77;;
32228;SDS011;18717;48.034;11.186;2023-02-01T01:17:10;12.15;;;9.75;;
32228;SDS011;18717;48.034;11.186;2023-02-01T01:19:38;11.73;;;10.48;;
32228;SDS011;18717;48.034;11.186;2023-02-01T01:22:06;12.68;;;10.55;;
32228;SDS011;18717;48.034;11.186;2023-02-01T01:24:33;10.73;;;9.73;;
32228;SDS011;18717;48.034;11.186;2023-02-01T01:27:01;12.00;;;10.57;;
32228;SDS011;18717;48.034;11.186;2023-02-01T01:29:30;11.38;;;10.27;;
32228;SDS011;18717;48.034;11.186;2023-02-01T01:31:58;13.93;;;10.00;;
32228;SDS011;18717;48.034;11.186;2023-02-01T01:34:25;12.98;;;11.10;;
32228;SDS011;18717;48.034;11.186;2023-02-01T01:36:53;11.25;;;10.15;;
32228;SDS011;18717;48.034;11.186;2023-02-01T01:39:21;12.85;;;10.68;;
32228;SDS011;18717;48.034;11.186;2023-02-01T01:41:48;15.95;;;10.10;;
32228;SDS011;18717;48.034;11.186;2023-02-01T01:47:27;14.02;;;10.88;;
32228;SDS011;18717;48.034;11.186;2023-02-01T01:52:26;12.40;;;10.60;;
32228;SDS011;18717;48.034;11.186;2023-02-01T01:54:54;11.05;;;9.63;;
32228;SDS011;18717;48.034;11.186;2023-02-01T01:57:23;12.65;;;10.32;;
32228;SDS011;18717;48.034;11.186;2023-02-01T01:59:53;12.35;;;10.45;;
32228;SDS011;18717;48.034;11.186;2023-02-01T02:02:25;15.55;;;11.18;;
32228;SDS011;18717;48.034;11.186;2023-02-01T02:04:52;12.40;;;10.65;;
32228;SDS011;18717;48.034;11.186;2023-02-01T02:07:21;13.98;;;10.30;;
32228;SDS011;18717;48.034;11.186;2023-02-01T02:09:50;16.08;;;10.80;;
32228;SDS011;18717;48.034;11.186;2023-02-01T02:12:26;11.85;;;10.32;;
32228;SDS011;18717;48.034;11.186;2023-02-01T02:14:54;12.02;;;10.80;;
32228;SDS011;18717;48.034;11.186;2023-02-01T02:17:29;15.35;;;10.45;;
32228;SDS011;18717;48.034;11.186;2023-02-01T02:20:13;13.30;;;10.93;;
32228;SDS011;18717;48.034;11.186;2023-02-01T02:23:15;13.27;;;10.02;;
32228;SDS011;18717;48.034;11.186;2023-02-01T02:26:01;13.98;;;11.13;;
32228;SDS011;18717;48.034;11.186;2023-02-01T02:31:46;12.48;;;11.18;;
32228;SDS011;18717;48.034;11.186;2023-02-01T02:34:35;11.13;;;9.90;;
32228;SDS011;18717;48.034;11.186;2023-02-01T02:37:09;13.65;;;10.63;;
32228;SDS011;18717;48.034;11.186;2023-02-01T02:39:42;11.88;;;10.52;;
32228;SDS011;18717;48.034;11.186;2023-02-01T02:42:14;12.55;;;10.38;;
32228;SDS011;18717;48.034;11.186;2023-02-01T02:45:08;12.82;;;10.68;;
32228;SDS011;18717;48.034;11.186;2023-02-01T02:47:59;17.02;;;10.93;;
32228;SDS011;18717;48.034;11.186;2023-02-01T02:50:32;13.38;;;10.23;;
32228;SDS011;18717;48.034;11.186;2023-02-01T02:53:21;11.63;;;10.43;;
32228;SDS011;18717;48.034;11.186;2023-02-01T02:56:09;14.38;;;11.55;;
32228;SDS011;18717;48.034;11.186;2023-02-01T02:58:54;14.48;;;9.82;;
32228;SDS011;18717;48.034;11.186;2023-02-01T03:01:40;14.35;;;11.35;;
32228;SDS011;18717;48.034;11.186;2023-02-01T03:04:25;12.88;;;10.30;;
32228;SDS011;18717;48.034;11.186;2023-02-01T03:06:55;10.57;;;9.38;;
32228;SDS011;18717;48.034;11.186;2023-02-01T03:09:23;11.40;;;9.52;;
32228;SDS011;18717;48.034;11.186;2023-02-01T03:11:56;11.32;;;10.13;;
32228;SDS011;18717;48.034;11.186;2023-02-01T03:14:44;11.82;;;9.70;;
32228;SDS011;18717;48.034;11.186;2023-02-01T03:17:14;11.23;;;9.90;;
32228;SDS011;18717;48.034;11.186;2023-02-01T03:19:45;10.63;;;9.52;;
32228;SDS011;18717;48.034;11.186;2023-02-01T03:22:18;10.60;;;9.50;;
32228;SDS011;18717;48.034;11.186;2023-02-01T03:24:49;12.00;;;9.57;;
32228;SDS011;18717;48.034;11.186;2023-02-01T03:27:20;10.63;;;9.25;;
32228;SDS011;18717;48.034;11.186;2023-02-01T03:29:51;10.27;;;9.23;;
32228;SDS011;18717;48.034;11.186;2023-02-01T03:32:21;14.32;;;10.90;;
32228;SDS011;18717;48.034;11.186;2023-02-01T03:34:49;12.57;;;10.10;;
32228;SDS011;18717;48.034;11.186;2023-02-01T03:37:20;10.90;;;9.90;;
32228;SDS011;18717;48.034;11.186;2023-02-01T03:39:52;13.85;;;10.50;;
32228;SDS011;18717;48.034;11.186;2023-02-01T03:42:21;12.27;;;9.55;;
32228;SDS011;18717;48.034;11.186;2023-02-01T03:44:54;10.75;;;9.65;;
32228;SDS011;18717;48.034;11.186;2023-02-01T03:47:25;12.98;;;10.13;;
32228;SDS011;18717;48.034;11.186;2023-02-01T03:49:55;10.95;;;9.85;;
32228;SDS011;18717;48.034;11.186;2023-02-01T03:52:28;11.23;;;9.50;;
32228;SDS011;18717;48.034;11.186;2023-02-01T03:54:57;12.00;;;10.27;;
32228;SDS011;18717;48.034;11.186;2023-02-01T03:57:26;10.30;;;9.32;;
32228;SDS011;18717;48.034;11.186;2023-02-01T04:00:03;11.43;;;9.60;;
32228;SDS011;18717;48.034;11.186;2023-02-01T04:02:33;14.90;;;9.85;;
32228;SDS011;18717;48.034;11.186;2023-02-01T04:05:01;15.15;;;9.77;;
32228;SDS011;18717;48.034;11.186;2023-02-01T04:07:30;12.55;;;10.10;;
32228;SDS011;18717;48.034;11.186;2023-02-01T04:09:58;10.77;;;9.73;;
32228;SDS011;18717;48.034;11.186;2023-02-01T04:12:26;11.88;;;10.57;;
32228;SDS011;18717;48.034;11.186;2023-02-01T04:14:55;10.25;;;9.27;;
32228;SDS011;18717;48.034;11.186;2023-02-01T04:17:23;11.32;;;10.23;;
32228;SDS011;18717;48.034;11.186;2023-02-01T04:19:50;10.70;;;9.48;;
32228;SDS011;18717;48.034;11.186;2023-02-01T04:22:20;12.90;;;10.40;;
32228;SDS011;18717;48.034;11.186;2023-02-01T04:24:49;11.57;;;10.10;;
32228;SDS011;18717;48.034;11.186;2023-02-01T04:27:17;16.55;;;9.88;;
32228;SDS011;18717;48.034;11.186;2023-02-01T04:29:45;13.25;;;10.05;;
32228;SDS011;18717;48.034;11.186;2023-02-01T04:32:12;14.45;;;10.32;;
32228;SDS011;18717;48.034;11.186;2023-02-01T04:34:42;14.52;;;10.52;;
32228;SDS011;18717;48.034;11.186;2023-02-01T04:37:09;15.75;;;10.25;;
32228;SDS011;18717;48.034;11.186;2023-02-01T04:39:37;12.88;;;10.13;;
32228;SDS011;18717;48.034;11.186;2023-02-01T04:42:06;13.57;;;10.80;;
32228;SDS011;18717;48.034;11.186;2023-02-01T04:44:34;11.68;;;10.52;;
32228;SDS011;18717;48.034;11.186;2023-02-01T04:47:05;13.40;;;10.68;;
32228;SDS011;18717;48.034;11.186;2023-02-01T04:49:33;11.95;;;9.77;;
32228;SDS011;18717;48.034;11.186;2023-02-01T04:52:01;12.93;;;10.93;;
32228;SDS011;18717;48.034;11.186;2023-02-01T04:54:28;12.98;;;11.60;;
32228;SDS011;18717;48.034;11.186;2023-02-01T04:56:56;11.57;;;10.25;;
32228;SDS011;18717;48.034;11.186;2023-02-01T04:59:25;12.95;;;10.13;;
32228;SDS011;18717;48.034;11.186;2023-02-01T05:01:54;13.73;;;11.68;;
32228;SDS011;18717;48.034;11.186;2023-02-01T05:04:21;11.48;;;9.75;;
32228;SDS011;18717;48.034;11.186;2023-02-01T05:06:49;11.15;;;9.98;;
32228;SDS011;18717;48.034;11.186;2023-02-01T05:09:17;12.80;;;9.98;;
32228;SDS011;18717;48.034;11.186;2023-02-01T05:11:46;11.93;;;10.55;;
32228;SDS011;18717;48.034;11.186;2023-02-01T05:14:34;11.10;;;9.90;;
32228;SDS011;18717;48.034;11.186;2023-02-01T05:17:02;11.07;;;9.68;;
32228;SDS011;18717;48.034;11.186;2023-02-01T05:19:30;11.90;;;10.27;;
32228;SDS011;18717;48.034;11.186;2023-02-01T05:21:57;18.27;;;11.35;;
32228;SDS011;18717;48.034;11.186;2023-02-01T05:24:25;15.15;;;10.43;;
32228;SDS011;18717;48.034;11.186;2023-02-01T05:26:53;13.00;;;11.50;;
32228;SDS011;18717;48.034;11.186;2023-02-01T05:29:20;15.85;;;10.93;;
32228;SDS011;18717;48.034;11.186;2023-02-01T05:31:50;12.38;;;10.35;;
32228;SDS011;18717;48.034;11.186;2023-02-01T05:34:17;18.20;;;10.32;;
32228;SDS011;18717;48.034;11.186;2023-02-01T05:36:45;10.55;;;9.52;;
32228;SDS011;18717;48.034;11.186;2023-02-01T05:39:13;13.80;;;10.35;;
32228;SDS011;18717;48.034;11.186;2023-02-01T05:41:40;11.90;;;10.70;;
32228;SDS011;18717;48.034;11.186;2023-02-01T05:44:09;11.50;;;10.20;;
32228;SDS011;18717;48.034;11.186;2023-02-01T05:46:37;14.77;;;10.75;;
32228;SDS011;18717;48.034;11.186;2023-02-01T05:49:06;14.27;;;10.50;;
32228;SDS011;18717;48.034;11.186;2023-02-01T05:51:34;11.85;;;10.02;;
32228;SDS011;18717;48.034;11.186;2023-02-01T05:54:02;12.98;;;10.23;;
32228;SDS011;18717;48.034;11.186;2023-02-01T05:56:30;10.88;;;9.68;;
32228;SDS011;18717;48.034;11.186;2023-02-01T05:58:57;13.27;;;11.10;;
32228;SDS011;18717;48.034;11.186;2023-02-01T06:01:25;11.57;;;10.40;;
32228;SDS011;18717;48.034;11.186;2023-02-01T06:03:53;13.70;;;11.55;;
32228;SDS011;18717;48.034;11.186;2023-02-01T06:06:22;13.63;;;10.93;;
32228;SDS011;18717;48.034;11.186;2023-02-01T06:08:49;13.45;;;10.93;;
32228;SDS011;18717;48.034;11.186;2023-02-01T06:11:17;11.55;;;10.05;;
32228;SDS011;18717;48.034;11.186;2023-02-01T06:13:57;11.90;;;10.05;;
32228;SDS011;18717;48.034;11.186;2023-02-01T06:16:25;15.25;;;10.52;;
32228;SDS011;18717;48.034;11.186;2023-02-01T06:18:53;12.02;;;9.98;;
32228;SDS011;18717;48.034;11.186;2023-02-01T06:21:22;11.63;;;10.18;;
32228;SDS011;18717;48.034;11.186;2023-02-01T06:23:50;14.68;;;10.85;;
32228;SDS011;18717;48.034;11.186;2023-02-01T06:26:18;12.75;;;10.40;;
32228;SDS011;18717;48.034;11.186;2023-02-01T06:28:46;11.50;;;10.27;;
32228;SDS011;18717;48.034;11.186;2023-02-01T06:31:14;14.90;;;10.07;;
32228;SDS011;18717;48.034;11.186;2023-02-01T06:33:42;13.23;;;9.48;;
32228;SDS011;18717;48.034;11.186;2023-02-01T06:36:09;12.35;;;10.70;;
32228;SDS011;18717;48.034;11.186;2023-02-01T06:38:40;12.88;;;9.10;;
32228;SDS011;18717;48.034;11.186;2023-02-01T06:41:08;10.20;;;9.18;;
32228;SDS011;18717;48.034;11.186;2023-02-01T06:43:37;11.77;;;9.20;;
32228;SDS011;18717;48.034;11.186;2023-02-01T06:46:07;11.50;;;10.40;;
32228;SDS011;18717;48.034;11.186;2023-02-01T06:49:16;15.15;;;8.18;;
32228;SDS011;18717;48.034;11.186;2023-02-01T06:51:44;15.35;;;10.05;;
32228;SDS011;18717;48.034;11.186;2023-02-01T06:54:13;11.32;;;9.18;;
32228;SDS011;18717;48.034;11.186;2023-02-01T06:56:41;9.50;;;8.60;;
32228;SDS011;18717;48.034;11.186;2023-02-01T06:59:09;11.70;;;9.70;;
32228;SDS011;18717;48.034;11.186;2023-02-01T07:01:37;12.35;;;9.52;;
32228;SDS011;18717;48.034;11.186;2023-02-01T07:04:05;11.10;;;9.13;;
32228;SDS011;18717;48.034;11.186;2023-02-01T07:06:33;9.88;;;8.77;;
32228;SDS011;18717;48.034;11.186;2023-02-01T07:09:00;9.75;;;8.75;;
32228;SDS011;18717;48.034;11.186;2023-02-01T07:11:29;14.13;;;9.18;;
32228;SDS011;18717;48.034;11.186;2023-02-01T07:13:58;9.73;;;8.75;;
32228;SDS011;18717;48.034;11.186;2023-02-01T07:16:26;9.43;;;8.05;;
32228;SDS011;18717;48.034;11.186;2023-02-01T07:18:55;10.10;;;9.10;;
32228;SDS011;18717;48.034;11.186;2023-02-01T07:21:22;9.18;;;8.38;;
32228;SDS011;18717;48.034;11.186;2023-02-01T07:23:50;9.60;;;8.68;;
32228;SDS011;18717;48.034;11.186;2023-02-01T07:26:18;9.77;;;8.77;;
32228;SDS011;18717;48.034;11.186;2023-02-01T07:28:47;9.68;;;8.68;;
32228;SDS011;18717;48.034;11.186;2023-02-01T07:31:15;10.60;;;9.63;;
32228;SDS011;18717;48.034;11.186;2023-02-01T07:33:47;8.35;;;7.75;;
32228;SDS011;18717;48.034;11.186;2023-02-01T07:36:18;9.77;;;8.88;;
32228;SDS011;18717;48.034;11.186;2023-02-01T07:38:46;9.98;;;8.98;;
32228;SDS011;18717;48.034;11.186;2023-02-01T07:41:14;10.38;;;8.90;;
32228;SDS011;18717;48.034;11.186;2023-02-01T07:43:42;8.70;;;7.90;;
32228;SDS011;18717;48.034;11.186;2023-02-01T07:46:11;9.27;;;8.45;;
32228;SDS011;18717;48.034;11.186;2023-02-01T07:48:41;8.38;;;7.57;;
32228;SDS011;18717;48.034;11.186;2023-02-01T07:51:10;8.95;;;8.13;;
32228;SDS011;18717;48.034;11.186;2023-02-01T07:53:38;8.77;;;7.97;;
32228;SDS011;18717;48.034;11.186;2023-02-01T07:56:09;8.85;;;7.95;;
32228;SDS011;18717;48.034;11.186;2023-02-01T07:58:38;8.35;;;7.75;;
32228;SDS011;18717;48.034;11.186;2023-02-01T08:01:12;8.50;;;7.90;;
32228;SDS011;18717;48.034;11.186;2023-02-01T08:03:46;8.43;;;7.80;;
32228;SDS011;18717;48.034;11.186;2023-02-01T08:06:14;8.45;;;7.75;;
32228;SDS011;18717;48.034;11.186;2023-02-01T08:08:42;7.70;;;7.20;;
32228;SDS011;18717;48.034;11.186;2023-02-01T08:11:11;8.48;;;7.78;;
32228;SDS011;18717;48.034;11.186;2023-02-01T08:13:39;9.05;;;8.27;;
32228;SDS011;18717;48.034;11.186;2023-02-01T08:16:08;11.38;;;8.13;;
32228;SDS011;18717;48.034;11.186;2023-02-01T08:18:38;8.95;;;8.13;;
32228;SDS011;18717;48.034;11.186;2023-02-01T08:21:06;8.48;;;7.57;;
32228;SDS011;18717;48.034;11.186;2023-02-01T08:23:35;9.13;;;8.30;;
32228;SDS011;18717;48.034;11.186;2023-02-01T08:26:05;9.25;;;8.05;;
32228;SDS011;18717;48.034;11.186;2023-02-01T08:28:34;13.20;;;8.68;;
32228;SDS011;18717;48.034;11.186;2023-02-01T08:31:03;9.25;;;8.38;;
32228;SDS011;18717;48.034;11.186;2023-02-01T08:33:32;8.88;;;8.10;;
32228;SDS011;18717;48.034;11.186;2023-02-01T08:36:02;9.27;;;8.48;;
32228;SDS011;18717;48.034;11.186;2023-02-01T08:38:30;8.75;;;7.97;;
32228;SDS011;18717;48.034;11.186;2023-02-01T08:41:02;8.60;;;8.00;;
32228;SDS011;18717;48.034;11.186;2023-02-01T08:43:31;9.85;;;8.85;;
32228;SDS011;18717;48.034;11.186;2023-02-01T08:45:59;9.65;;;8.80;;
32228;SDS011;18717;48.034;11.186;2023-02-01T08:48:27;8.57;;;7.88;;
32228;SDS011;18717;48.034;11.186;2023-02-01T08:50:54;9.18;;;8.10;;
32228;SDS011;18717;48.034;11.186;2023-02-01T08:53:23;9.55;;;8.10;;
32228;SDS011;18717;48.034;11.186;2023-02-01T08:55:51;9.35;;;8.57;;
32228;SDS011;18717;48.034;11.186;2023-02-01T08:58:19;8.95;;;8.05;;
32228;SDS011;18717;48.034;11.186;2023-02-01T09:00:48;11.68;;;10.10;;
32228;SDS011;18717;48.034;11.186;2023-02-01T09:03:16;15.32;;;10.18;;
32228;SDS011;18717;48.034;11.186;2023-02-01T09:05:43;12.95;;;10.38;;
32228;SDS011;18717;48.034;11.186;2023-02-01T09:08:15;9.60;;;8.70;;
32228;SDS011;18717;48.034;11.186;2023-02-01T09:10:46;9.18;;;8.35;;
32228;SDS011;18717;48.034;11.186;2023-02-01T09:13:14;8.15;;;7.53;;
32228;SDS011;18717;48.034;11.186;2023-02-01T09:15:41;9.25;;;8.45;;
32228;SDS011;18717;48.034;11.186;2023-02-01T09:18:09;11.60;;;9.05;;
32228;SDS011;18717;48.034;11.186;2023-02-01T09:20:37;9.35;;;8.40;;
32228;SDS011;18717;48.034;11.186;2023-02-01T09:23:04;8.90;;;8.02;;
32228;SDS011;18717;48.034;11.186;2023-02-01T09:25:33;9.23;;;8.32;;
32228;SDS011;18717;48.034;11.186;2023-02-01T09:28:02;9.93;;;8.95;;
32228;SDS011;18717;48.034;11.186;2023-02-01T09:30:32;9.38;;;8.57;;
32228;SDS011;18717;48.034;11.186;2023-02-01T09:32:59;9.50;;;8.52;;
32228;SDS011;18717;48.034;11.186;2023-02-01T09:35:27;9.52;;;8.75;;
32228;SDS011;18717;48.034;11.186;2023-02-01T09:37:54;14.43;;;8.57;;
32228;SDS011;18717;48.034;11.186;2023-02-01T09:40:22;9.70;;;8.20;;
32228;SDS011;18717;48.034;11.186;2023-02-01T09:42:55;8.73;;;7.90;;
32228;SDS011;18717;48.034;11.186;2023-02-01T09:48:03;9.35;;;8.55;;
32228;SDS011;18717;48.034;11.186;2023-02-01T09:50:37;9.60;;;8.82;;
32228;SDS011;18717;48.034;11.186;2023-02-01T09:53:09;8.98;;;8.18;;
32228;SDS011;18717;48.034;11.186;2023-02-01T09:55:39;9.15;;;8.25;;
32228;SDS011;18717;48.034;11.186;2023-02-01T09:58:11;8.75;;;8.05;;
32228;SDS011;18717;48.034;11.186;2023-02-01T10:00:43;14.13;;;9.93;;
32228;SDS011;18717;48.034;11.186;2023-02-01T10:03:15;9.55;;;8.68;;
32228;SDS011;18717;48.034;11.186;2023-02-01T10:05:58;18.15;;;11.60;;
32228;SDS011;18717;48.034;11.186;2023-02-01T10:08:48;12.68;;;9.98;;
32228;SDS011;18717;48.034;11.186;2023-02-01T10:11:26;11.25;;;9.77;;
32228;SDS011;18717;48.034;11.186;2023-02-01T10:13:59;12.90;;;9.35;;
32228;SDS011;18717;48.034;11.186;2023-02-01T10:16:33;22.73;;;12.27;;
32228;SDS011;18717;48.034;11.186;2023-02-01T10:19:17;11.45;;;9.75;;
32228;SDS011;18717;48.034;11.186;2023-02-01T10:21:52;8.85;;;8.15;;
32228;SDS011;18717;48.034;11.186;2023-02-01T10:24:25;11.25;;;9.85;;
32228;SDS011;18717;48.034;11.186;2023-02-01T10:27:01;10.52;;;9.68;;
32228;SDS011;18717;48.034;11.186;2023-02-01T10:29:33;10.25;;;8.82;;
32228;SDS011;18717;48.034;11.186;2023-02-01T10:32:02;9.60;;;8.63;;
32228;SDS011;18717;48.034;11.186;2023-02-01T10:34:37;9.45;;;8.52;;
32228;SDS011;18717;48.034;11.186;2023-02-01T10:37:09;8.85;;;8.02;;
32228;SDS011;18717;48.034;11.186;2023-02-01T10:39:45;9.68;;;8.85;;
32228;SDS011;18717;48.034;11.186;2023-02-01T10:42:18;11.07;;;8.93;;
32228;SDS011;18717;48.034;11.186;2023-02-01T10:44:56;9.10;;;8.30;;
32228;SDS011;18717;48.034;11.186;2023-02-01T10:47:28;11.98;;;9.43;;
32228;SDS011;18717;48.034;11.186;2023-02-01T10:49:58;9.32;;;8.43;;
32228;SDS011;18717;48.034;11.186;2023-02-01T10:52:34;9.68;;;8.80;;
32228;SDS011;18717;48.034;11.186;2023-02-01T10:55:26;9.68;;;8.70;;
32228;SDS011;18717;48.034;11.186;2023-02-01T10:57:55;9.88;;;8.90;;
32228;SDS011;18717;48.034;11.186;2023-02-01T11:00:26;9.90;;;8.88;;
32228;SDS011;18717;48.034;11.186;2023-02-01T11:02:54;10.52;;;9.63;;
32228;SDS011;18717;48.034;11.186;2023-02-01T11:05:22;11.85;;;8.48;;
32228;SDS011;18717;48.034;11.186;2023-02-01T11:07:53;10.60;;;9.70;;
32228;SDS011;18717;48.034;11.186;2023-02-01T11:10:34;9.02;;;8.30;;
32228;SDS011;18717;48.034;11.186;2023-02-01T11:13:03;11.63;;;8.88;;
32228;SDS011;18717;48.034;11.186;2023-02-01T11:15:32;8.93;;;8.13;;
32228;SDS011;18717;48.034;11.186;2023-02-01T11:18:14;10.93;;;8.63;;
32228;SDS011;18717;48.034;11.186;2023-02-01T11:20:43;10.90;;;9.05;;
32228;SDS011;18717;48.034;11.186;2023-02-01T11:23:13;11.23;;;10.05;;
32228;SDS011;18717;48.034;11.186;2023-02-01T11:25:47;9.45;;;8.65;;
32228;SDS011;18717;48.034;11.186;2023-02-01T11:28:15;9.23;;;8.43;;
32228;SDS011;18717;48.034;11.186;2023-02-01T11:30:45;11.68;;;8.40;;
32228;SDS011;18717;48.034;11.186;2023-02-01T11:33:16;11.52;;;9.02;;
32228;SDS011;18717;48.034;11.186;2023-02-01T11:35:45;11.18;;;10.15;;
32228;SDS011;18717;48.034;11.186;2023-02-01T11:38:20;9.50;;;8.80;;
32228;SDS011;18717;48.034;11.186;2023-02-01T11:40:49;8.10;;;7.55;;
32228;SDS011;18717;48.034;11.186;2023-02-01T11:43:18;9.63;;;8.82;;
32228;SDS011;18717;48.034;11.186;2023-02-01T11:45:55;12.68;;;9.73;;
32228;SDS011;18717;48.034;11.186;2023-02-01T11:48:24;9.43;;;8.43;;
32228;SDS011;18717;48.034;11.186;2023-02-01T11:50:57;10.10;;;9.20;;
32228;SDS011;18717;48.034;11.186;2023-02-01T11:53:36;10.02;;;8.75;;
32228;SDS011;18717;48.034;11.186;2023-02-01T11:56:12;9.60;;;8.70;;
32228;SDS011;18717;48.034;11.186;2023-02-01T11:58:51;9.63;;;8.75;;
32228;SDS011;18717;48.034;11.186;2023-02-01T12:01:34;9.48;;;8.68;;
32228;SDS011;18717;48.034;11.186;2023-02-01T12:04:19;18.67;;;9.50;;
32228;SDS011;18717;48.034;11.186;2023-02-01T12:07:05;13.45;;;9.32;;
32228;SDS011;18717;48.034;11.186;2023-02-01T12:09:44;12.32;;;8.65;;
32228;SDS011;18717;48.034;11.186;2023-02-01T12:12:28;9.07;;;8.27;;
32228;SDS011;18717;48.034;11.186;2023-02-01T12:15:06;9.32;;;8.48;;
32228;SDS011;18717;48.034;11.186;2023-02-01T12:17:49;9.93;;;8.25;;
32228;SDS011;18717;48.034;11.186;2023-02-01T12:20:36;10.25;;;9.25;;
32228;SDS011;18717;48.034;11.186;2023-02-01T12:23:34;8.55;;;7.78;;
32228;SDS011;18717;48.034;11.186;2023-02-01T12:26:13;9.32;;;8.30;;
32228;SDS011;18717;48.034;11.186;2023-02-01T12:29:00;9.13;;;8.38;;
32228;SDS011;18717;48.034;11.186;2023-02-01T12:31:38;10.95;;;8.18;;
32228;SDS011;18717;48.034;11.186;2023-02-01T12:37:08;11.55;;;8.45;;
32228;SDS011;18717;48.034;11.186;2023-02-01T12:39:43;8.60;;;7.97;;
32228;SDS011;18717;48.034;11.186;2023-02-01T12:44:44;9.02;;;8.13;;
32228;SDS011;18717;48.034;11.186;2023-02-01T12:47:17;8.57;;;7.60;;
32228;SDS011;18717;48.034;11.186;2023-02-01T12:49:51;9.52;;;8.60;;
32228;SDS011;18717;48.034;11.186;2023-02-01T12:52:24;11.52;;;9.55;;
32228;SDS011;18717;48.034;11.186;2023-02-01T12:55:00;9.80;;;9.02;;
32228;SDS011;18717;48.034;11.186;2023-02-01T12:57:30;12.10;;;7.97;;
32228;SDS011;18717;48.034;11.186;2023-02-01T13:00:01;9.75;;;8.90;;
32228;SDS011;18717;48.034;11.186;2023-02-01T13:02:35;9.60;;;8.90;;
32228;SDS011;18717;48.034;11.186;2023-02-01T13:05:14;9.93;;;8.95;;
32228;SDS011;18717;48.034;11.186;2023-02-01T13:07:45;8.52;;;7.82;;
32228;SDS011;18717;48.034;11.186;2023-02-01T13:10:16;7.30;;;6.73;;
32228;SDS011;18717;48.034;11.186;2023-02-01T13:12:50;9.20;;;8.40;;
32228;SDS011;18717;48.034;11.186;2023-02-01T13:15:23;9.77;;;8.98;;
32228;SDS011;18717;48.034;11.186;2023-02-01T13:17:52;6.75;;;6.30;;
32228;SDS011;18717;48.034;11.186;2023-02-01T13:20:25;9.57;;;8.52;;
32228;SDS011;18717;48.034;11.186;2023-02-01T13:22:57;10.10;;;8.82;;
32228;SDS011;18717;48.034;11.186;2023-02-01T13:25:30;9.25;;;8.45;;
32228;SDS011;18717;48.034;11.186;2023-02-01T13:28:02;9.55;;;8.65;;
32228;SDS011;18717;48.034;11.186;2023-02-01T13:30:36;8.82;;;8.07;;
32228;SDS011;18717;48.034;11.186;2023-02-01T13:33:14;10.30;;;8.55;;
32228;SDS011;18717;48.034;11.186;2023-02-01T13:36:14;8.70;;;8.00;;
32228;SDS011;18717;48.034;11.186;2023-02-01T13:38:57;10.88;;;8.18;;
32228;SDS011;18717;48.034;11.186;2023-02-01T13:41:35;9.60;;;8.68;;
32228;SDS011;18717;48.034;11.186;2023-02-01T13:44:10;8.50;;;7.88;;
32228;SDS011;18717;48.034;11.186;2023-02-01T13:46:39;12.07;;;8.07;;
32228;SDS011;18717;48.034;11.186;2023-02-01T13:49:13;8.90;;;8.15;;
32228;SDS011;18717;48.034;11.186;2023-02-01T13:51:48;9.40;;;8.38;;
32228;SDS011;18717;48.034;11.186;2023-02-01T13:54:25;8.90;;;8.23;;
32228;SDS011;18717;48.034;11.186;2023-02-01T13:56:54;9.35;;;8.52;;
32228;SDS011;18717;48.034;11.186;2023-02-01T13:59:49;8.77;;;8.07;;
32228;SDS011;18717;48.034;11.186;2023-02-01T14:08:46;9.45;;;8.65;;
32228;SDS011;18717;48.034;11.186;2023-02-01T14:11:36;7.43;;;6.70;;
32228;SDS011;18717;48.034;11.186;2023-02-01T14:23:16;9.00;;;6.80;;
32228;SDS011;18717;48.034;11.186;2023-02-01T14:25:46;8.35;;;7.72;;
32228;SDS011;18717;48.034;11.186;2023-02-01T14:28:28;8.27;;;7.63;;
32228;SDS011;18717;48.034;11.186;2023-02-01T14:30:57;8.32;;;7.55;;
32228;SDS011;18717;48.034;11.186;2023-02-01T14:33:26;8.55;;;7.75;;
32228;SDS011;18717;48.034;11.186;2023-02-01T14:35:57;9.93;;;7.72;;
32228;SDS011;18717;48.034;11.186;2023-02-01T14:38:30;8.65;;;7.78;;
32228;SDS011;18717;48.034;11.186;2023-02-01T14:41:11;8.07;;;7.47;;
32228;SDS011;18717;48.034;11.186;2023-02-01T14:46:18;8.32;;;7.60;;
32228;SDS011;18717;48.034;11.186;2023-02-01T14:48:46;9.05;;;8.35;;
32228;SDS011;18717;48.034;11.186;2023-02-01T14:51:15;9.57;;;8.68;;
32228;SDS011;18717;48.034;11.186;2023-02-01T14:53:43;9.77;;;7.38;;
32228;SDS011;18717;48.034;11.186;2023-02-01T14:56:15;10.05;;;8.55;;
32228;SDS011;18717;48.034;11.186;2023-02-01T14:58:48;8.63;;;7.75;;
32228;SDS011;18717;48.034;11.186;2023-02-01T15:01:20;8.02;;;7.22;;
32228;SDS011;18717;48.034;11.186;2023-02-01T15:03:52;9.25;;;7.90;;
32228;SDS011;18717;48.034;11.186;2023-02-01T15:06:25;9.23;;;8.43;;
32228;SDS011;18717;48.034;11.186;2023-02-01T15:08:56;9.85;;;8.75;;
32228;SDS011;18717;48.034;11.186;2023-02-01T15:11:27;8.68;;;7.85;;
32228;SDS011;18717;48.034;11.186;2023-02-01T15:13:55;10.85;;;8.05;;
32228;SDS011;18717;48.034;11.186;2023-02-01T15:16:24;8.70;;;7.88;;
32228;SDS011;18717;48.034;11.186;2023-02-01T15:19:06;9.00;;;8.15;;
32228;SDS011;18717;48.034;11.186;2023-02-01T15:21:43;10.80;;;8.43;;
32228;SDS011;18717;48.034;11.186;2023-02-01T15:24:12;8.98;;;8.18;;